Lancaster, Ohio
Current Conditions -  °F | °C
As of 8:53 PM on Thursday 20 Nov 2014 (Local Time) from KLHQ Reporting Station
Overcast Overcast  
Wind Chill: 17°   Ceiling: 3900
Heat Index: 24°   Visibility: 10mi
Dew Point: 14°   Wind: 6mph
Humidity: 65%   Direction: 260°W
Pressure: 30.18"   Gusts: NA
Location:  39.71°N, 82.6°W
Report Text: KLHQ 210153Z AUTO 26005KT 10SM OVC039 M04/M10 A3018 RMK AO2 SLP233 T10441100
Loading
Personal Weather Stations






























Interactive Weather Map New forecast layout! Learn more

10-Day Weather Forecast

Advertisements
Track Severe Weather on mobile